KEYW/EYW METAR and TAF weather

Enter ICAO airport designator
Station Type Date Time Source
KEYW METAR 2020/09/19 17:53 UTC NOAA

KEYW 191753Z 19005KT 10SM CLR 31/24 A2991 RMK AO2 SLP127 T03110244 10311 20294 58010


Station Type Date Time Source
KEYW Decoded METAR 2020/09/19 17:53 UTC NOAA

KEY WEST INTERNATIONAL AIRPORT , FL, United States (KEYW) 24-33N 81-46W 5M
Sep 19, 2020 - 01:53 PM EDT / 2020.09.19 1753 UTC
Wind: from the S (190 degrees) at 6 MPH (5 KT):0
Visibility: 10 mile(s):0
Sky conditions: clear
Temperature: 88.0 F (31.1 C)
Heat index: 98.6 F (37.0 C):1
Dew Point: 75.9 F (24.4 C)
Relative Humidity: 67%
Pressure (altimeter): 29.91 in. Hg (1012 hPa)
Pressure tendency: 0.03 inches (1.0 hPa) lower than three hours ago
ob: KEYW 191753Z 19005KT 10SM CLR 31/24 A2991 RMK AO2 SLP127 T03110244 10311 20294 58010
cycle: 18

Station Type Date Time Source
KEYW TAF 2020/09/19 18:30 UTC NOAA

TAF KEYW 191729Z 1918/2018 22006KT P6SM SCT025
FM192300 32004KT P6SM FEW025
FM201000 VRB03KT P6SM FEW022

Example: see airport list